createdAt,value
2022-09-22T00:01:31.334Z,12.81
2022-09-22T00:04:01.538Z,12.48
2022-09-22T00:06:34.265Z,12.69
2022-09-22T00:09:03.060Z,12.66
2022-09-22T00:11:34.308Z,12.79
2022-09-22T00:14:05.485Z,13.03
2022-09-22T00:16:39.304Z,12.92
2022-09-22T00:19:07.822Z,12.69
2022-09-22T00:21:37.620Z,12.71
2022-09-22T00:24:07.998Z,12.50
2022-09-22T00:26:37.383Z,12.46
2022-09-22T00:29:08.114Z,12.73
2022-09-22T00:31:37.007Z,12.62
2022-09-22T00:34:05.620Z,12.62
2022-09-22T00:36:33.892Z,12.51
2022-09-22T00:39:03.519Z,12.59
2022-09-22T00:41:34.119Z,12.79
2022-09-22T00:44:31.123Z,12.61
2022-09-22T00:47:02.473Z,12.52
2022-09-22T00:49:42.978Z,12.56
2022-09-22T00:52:12.398Z,12.74
2022-09-22T00:54:41.712Z,12.90
2022-09-22T00:57:12.243Z,12.90
2022-09-22T00:59:41.763Z,12.62
2022-09-22T01:02:09.581Z,12.88
2022-09-22T01:04:37.368Z,12.90
2022-09-22T01:07:06.770Z,12.92
2022-09-22T01:09:34.822Z,12.77
2022-09-22T01:12:05.477Z,12.57
2022-09-22T01:14:46.493Z,12.51
2022-09-22T01:17:23.581Z,12.57
2022-09-22T01:20:37.092Z,12.45
2022-09-22T01:23:28.715Z,12.42
2022-09-22T01:26:20.121Z,12.27
2022-09-22T01:29:11.498Z,12.17
2022-09-22T01:31:46.017Z,12.15
2022-09-22T01:34:21.055Z,12.12
2022-09-22T01:37:04.262Z,12.28
2022-09-22T01:39:38.632Z,12.41
2022-09-22T01:42:10.844Z,12.13
2022-09-22T01:44:46.449Z,12.24
2022-09-22T01:47:22.110Z,11.90
2022-09-22T01:49:53.580Z,12.09
2022-09-22T01:52:24.952Z,12.04
2022-09-22T01:54:56.932Z,11.98
2022-09-22T01:57:29.492Z,11.95
2022-09-22T02:00:03.192Z,12.37
2022-09-22T02:02:37.856Z,12.07
2022-09-22T02:05:09.527Z,11.71
2022-09-22T02:07:41.700Z,11.66
2022-09-22T02:10:13.257Z,11.80
2022-09-22T02:12:41.323Z,11.56
2022-09-22T02:15:31.032Z,11.77
2022-09-22T02:18:04.691Z,11.73
2022-09-22T02:20:34.164Z,11.88
2022-09-22T02:23:01.945Z,12.03
2022-09-22T02:25:30.262Z,11.90
2022-09-22T02:27:59.086Z,12.12
2022-09-22T02:30:28.041Z,11.95
2022-09-22T02:32:58.343Z,11.81
2022-09-22T02:35:31.263Z,11.93
2022-09-22T02:38:05.162Z,11.98
2022-09-22T02:40:42.791Z,12.01
2022-09-22T02:43:17.563Z,12.16
2022-09-22T02:45:52.108Z,11.94
2022-09-22T02:48:22.818Z,11.67
2022-09-22T02:50:52.895Z,11.44
2022-09-22T02:53:20.626Z,11.62
2022-09-22T02:55:49.118Z,11.81
2022-09-22T02:58:18.173Z,11.53
2022-09-22T03:00:46.307Z,11.76
2022-09-22T03:03:14.438Z,11.46
2022-09-22T03:05:42.156Z,11.38
2022-09-22T03:08:11.252Z,11.56
2022-09-22T03:10:38.956Z,11.60
2022-09-22T03:13:16.309Z,11.28
2022-09-22T03:15:45.271Z,11.25
2022-09-22T03:18:13.055Z,11.26
2022-09-22T03:20:40.960Z,11.11
2022-09-22T03:23:08.779Z,10.93
2022-09-22T03:25:37.882Z,11.22
2022-09-22T03:28:05.874Z,11.25
2022-09-22T03:30:33.769Z,10.93
2022-09-22T03:33:01.517Z,10.79
2022-09-22T03:35:29.245Z,10.73
2022-09-22T03:37:56.941Z,10.88
2022-09-22T03:40:24.839Z,11.23
2022-09-22T03:42:53.930Z,10.94
2022-09-22T03:45:21.649Z,11.16
2022-09-22T03:47:49.436Z,11.48
2022-09-22T03:50:17.324Z,11.26
2022-09-22T03:52:45.015Z,11.48
2022-09-22T03:55:13.191Z,11.09
2022-09-22T03:57:43.377Z,10.94
2022-09-22T04:00:15.065Z,10.81
2022-09-22T04:02:42.805Z,11.10
2022-09-22T04:05:11.663Z,11.22
2022-09-22T04:07:39.524Z,11.27
2022-09-22T04:10:07.769Z,11.81
2022-09-22T04:12:37.190Z,11.51
2022-09-22T04:15:05.549Z,11.38
2022-09-22T04:17:36.081Z,11.21
2022-09-22T04:20:04.557Z,11.22
2022-09-22T04:22:32.271Z,11.41
2022-09-22T04:25:00.416Z,11.63
2022-09-22T04:27:28.096Z,11.52
2022-09-22T04:29:55.965Z,11.29
2022-09-22T04:32:23.727Z,11.32
2022-09-22T04:34:52.954Z,11.10
2022-09-22T04:37:20.651Z,11.27
2022-09-22T04:39:48.336Z,11.21
2022-09-22T04:42:16.106Z,10.91
2022-09-22T04:44:43.789Z,10.95
2022-09-22T04:47:11.477Z,10.77
2022-09-22T04:49:39.194Z,10.66
2022-09-22T04:52:08.291Z,10.85
2022-09-22T04:54:35.960Z,10.51
2022-09-22T04:57:06.634Z,10.28
2022-09-22T04:59:35.347Z,10.65
2022-09-22T05:02:03.187Z,10.45
2022-09-22T05:04:30.893Z,9.84
2022-09-22T05:06:58.575Z,10.16
2022-09-22T05:09:28.162Z,10.04
2022-09-22T05:12:01.283Z,10.04
2022-09-22T05:14:30.325Z,10.04
2022-09-22T05:16:58.117Z,9.79
2022-09-22T05:19:25.871Z,10.26
2022-09-22T05:21:54.340Z,10.26
2022-09-22T05:24:27.186Z,10.42
2022-09-22T05:26:55.167Z,10.33
2022-09-22T05:29:27.193Z,10.42
2022-09-22T05:31:55.752Z,10.91
2022-09-22T05:34:23.502Z,10.75
2022-09-22T05:36:51.200Z,10.61
2022-09-22T05:39:19.022Z,10.83
2022-09-22T05:41:49.827Z,10.83
2022-09-22T05:44:17.723Z,10.91
2022-09-22T05:46:46.769Z,11.47
2022-09-22T05:49:14.533Z,11.11
2022-09-22T05:51:42.732Z,11.02
2022-09-22T05:54:10.923Z,11.21
2022-09-22T05:56:38.598Z,11.30
2022-09-22T05:59:07.627Z,11.27
2022-09-22T06:01:35.333Z,11.20
2022-09-22T06:04:03.303Z,11.21
2022-09-22T06:06:31.248Z,10.69
2022-09-22T06:08:59.161Z,10.95
2022-09-22T06:11:26.912Z,10.95
2022-09-22T06:13:54.730Z,10.98
2022-09-22T06:16:23.902Z,11.06
2022-09-22T06:18:51.635Z,11.29
2022-09-22T06:21:19.355Z,11.27
2022-09-22T06:23:47.052Z,11.20
2022-09-22T06:26:14.817Z,11.79
2022-09-22T06:28:42.532Z,11.54
2022-09-22T06:31:10.281Z,12.01
2022-09-22T06:33:39.359Z,12.38
2022-09-22T06:36:07.998Z,12.05
2022-09-22T06:38:35.747Z,12.40
2022-09-22T06:41:06.829Z,13.11
2022-09-22T06:43:35.480Z,13.23
2022-09-22T06:46:03.762Z,13.28
2022-09-22T06:48:32.056Z,13.27
2022-09-22T06:51:01.146Z,13.01
2022-09-22T06:53:30.828Z,13.47
2022-09-22T06:56:00.338Z,13.34
2022-09-22T06:58:29.016Z,13.56
2022-09-22T07:01:07.616Z,13.73
2022-09-22T07:03:43.122Z,14.36
2022-09-22T07:06:20.237Z,14.58
2022-09-22T07:08:49.469Z,14.85
2022-09-22T07:11:23.481Z,14.83
2022-09-22T07:13:56.268Z,15.59
2022-09-22T07:16:25.474Z,15.78
2022-09-22T07:18:55.525Z,15.59
2022-09-22T07:21:26.386Z,15.47
2022-09-22T07:23:56.410Z,15.47
2022-09-22T07:26:26.556Z,15.37
2022-09-22T07:28:54.967Z,16.18
2022-09-22T07:31:28.391Z,16.01
2022-09-22T07:34:00.191Z,16.42
2022-09-22T07:36:31.130Z,16.25
2022-09-22T07:39:03.253Z,16.43
2022-09-22T07:41:34.100Z,16.25
2022-09-22T07:44:22.704Z,16.61
2022-09-22T07:46:50.644Z,16.82
2022-09-22T07:49:19.642Z,16.33
2022-09-22T07:51:49.535Z,16.41
2022-09-22T07:54:17.378Z,16.17
2022-09-22T07:56:46.333Z,16.43
2022-09-22T07:59:16.689Z,17.03
2022-09-22T08:01:47.512Z,16.56
2022-09-22T08:04:18.865Z,15.89
2022-09-22T08:06:50.193Z,16.23
2022-09-22T08:09:18.363Z,17.11
2022-09-22T08:11:48.730Z,16.65
2022-09-22T08:14:18.696Z,16.52
2022-09-22T08:16:46.957Z,17.65
2022-09-22T08:19:15.679Z,16.75
2022-09-22T08:21:48.998Z,16.98
2022-09-22T08:24:22.340Z,16.42
2022-09-22T08:26:52.470Z,16.58
2022-09-22T08:29:20.776Z,16.94
2022-09-22T08:31:51.156Z,17.03
2022-09-22T08:34:19.060Z,17.43
2022-09-22T08:36:49.055Z,17.78
2022-09-22T08:39:20.637Z,17.68
2022-09-22T08:42:01.232Z,16.97
2022-09-22T08:44:39.229Z,17.35
2022-09-22T08:47:16.602Z,17.29
2022-09-22T08:50:08.603Z,18.23
2022-09-22T08:52:40.478Z,18.34
2022-09-22T08:55:23.047Z,18.89
2022-09-22T08:58:01.889Z,19.39
2022-09-22T09:00:37.107Z,18.46
2022-09-22T09:03:27.443Z,18.15
2022-09-22T09:06:04.543Z,18.10
2022-09-22T09:09:17.039Z,18.39
2022-09-22T09:11:58.943Z,17.78
2022-09-22T09:14:56.823Z,19.09
2022-09-22T09:17:28.838Z,19.69
2022-09-22T09:20:02.671Z,19.98
2022-09-22T09:22:34.702Z,20.73
2022-09-22T09:27:59.046Z,19.17
2022-09-22T09:30:26.982Z,19.53
2022-09-22T09:32:57.647Z,20.48
2022-09-22T09:35:39.734Z,21.40
2022-09-22T09:38:14.578Z,20.73
2022-09-22T09:40:42.651Z,22.19
2022-09-22T09:43:12.077Z,19.85
2022-09-22T09:45:51.809Z,20.24
2022-09-22T09:48:27.066Z,20.74
2022-09-22T09:50:54.818Z,20.20
2022-09-22T09:53:32.218Z,19.68
2022-09-22T09:55:59.987Z,20.51
2022-09-22T09:58:46.652Z,20.42
2022-09-22T10:01:15.810Z,19.54
2022-09-22T10:03:47.012Z,20.84
2022-09-22T10:06:24.106Z,21.02
2022-09-22T10:08:53.088Z,23.01
2022-09-22T10:11:31.045Z,24.28
2022-09-22T10:14:00.288Z,23.68
2022-09-22T10:16:28.848Z,22.43
2022-09-22T10:19:21.712Z,22.61
2022-09-22T10:21:50.009Z,23.61
2022-09-22T10:24:33.340Z,23.39
2022-09-22T10:27:03.801Z,23.04
2022-09-22T10:29:42.222Z,23.05
2022-09-22T10:32:16.791Z,21.92
2022-09-22T10:37:24.419Z,20.43
2022-09-22T10:39:53.849Z,21.55
2022-09-22T10:42:34.234Z,22.26
2022-09-22T10:45:06.978Z,22.23
2022-09-22T10:47:45.535Z,22.94
2022-09-22T10:50:41.160Z,24.13
2022-09-22T10:53:28.398Z,24.79
2022-09-22T10:56:05.502Z,24.69
2022-09-22T10:58:51.107Z,23.65
2022-09-22T11:01:37.538Z,24.91
2022-09-22T11:04:21.067Z,23.83
2022-09-22T11:07:20.201Z,24.48
2022-09-22T11:10:12.105Z,24.81
2022-09-22T11:12:52.582Z,24.97
2022-09-22T11:15:38.058Z,24.38
2022-09-22T11:18:26.609Z,24.01
2022-09-22T11:21:02.029Z,24.23
2022-09-22T11:24:05.965Z,23.90
2022-09-22T11:26:47.040Z,23.31
2022-09-22T11:29:47.330Z,23.84
2022-09-22T11:32:29.742Z,23.92
2022-09-22T11:35:23.869Z,23.91
2022-09-22T11:38:09.442Z,25.23
2022-09-22T11:40:52.970Z,24.09
2022-09-22T11:43:36.970Z,23.34
2022-09-22T11:46:11.900Z,24.39
2022-09-22T11:48:51.900Z,23.62
2022-09-22T11:51:34.449Z,23.51
2022-09-22T11:54:18.296Z,25.14
2022-09-22T11:56:50.298Z,25.17
2022-09-22T11:59:33.929Z,25.11
2022-09-22T12:02:06.161Z,24.25
2022-09-22T12:04:40.261Z,23.79
2022-09-22T12:07:18.984Z,23.53
2022-09-22T12:09:52.531Z,24.57
2022-09-22T12:12:24.366Z,24.40
2022-09-22T12:14:59.129Z,24.50
2022-09-22T12:17:35.348Z,24.06
2022-09-22T12:20:13.782Z,24.33
2022-09-22T12:23:04.610Z,26.22
2022-09-22T12:25:49.692Z,25.12
2022-09-22T12:28:20.024Z,24.58
2022-09-22T12:31:02.336Z,25.42
2022-09-22T12:33:30.804Z,26.04
2022-09-22T12:35:59.691Z,25.44
2022-09-22T12:38:30.542Z,25.17
2022-09-22T12:41:02.468Z,22.79
2022-09-22T12:43:32.427Z,23.24
2022-09-22T12:46:03.602Z,21.57
2022-09-22T12:48:34.228Z,21.32
2022-09-22T12:51:18.384Z,20.89
2022-09-22T12:56:46.538Z,22.88
2022-09-22T12:59:47.389Z,24.85
2022-09-22T13:02:19.240Z,24.91
2022-09-22T13:05:25.515Z,22.22
2022-09-22T13:07:54.148Z,21.51
2022-09-22T13:10:52.770Z,21.10
2022-09-22T13:13:33.371Z,21.95
2022-09-22T13:16:02.861Z,23.85
2022-09-22T13:18:33.953Z,23.00
2022-09-22T13:21:03.347Z,22.99
2022-09-22T13:23:31.453Z,20.70
2022-09-22T13:26:15.331Z,23.59
2022-09-22T13:28:43.753Z,24.09
2022-09-22T13:31:14.454Z,21.92
2022-09-22T13:33:42.883Z,22.96
2022-09-22T13:36:14.798Z,22.25
2022-09-22T13:38:45.814Z,23.00
2022-09-22T13:41:19.451Z,22.68
2022-09-22T13:43:51.532Z,22.34
2022-09-22T13:46:23.159Z,20.59
2022-09-22T13:48:53.702Z,21.18
2022-09-22T13:51:22.175Z,21.66
2022-09-22T13:53:52.501Z,20.74
2022-09-22T13:56:30.003Z,20.39
2022-09-22T13:59:01.795Z,20.74
2022-09-22T14:01:31.616Z,20.45
2022-09-22T14:03:59.630Z,20.29
2022-09-22T14:06:31.854Z,20.57
2022-09-22T14:09:00.421Z,20.27
2022-09-22T14:11:32.061Z,20.26
2022-09-22T14:14:01.720Z,20.74
2022-09-22T14:16:33.618Z,20.59
2022-09-22T14:19:06.306Z,20.26
2022-09-22T14:21:41.816Z,20.31
2022-09-22T14:24:15.210Z,22.11
2022-09-22T14:26:48.958Z,21.67
2022-09-22T14:29:20.692Z,22.00
2022-09-22T14:31:53.640Z,20.85
2022-09-22T14:34:26.607Z,20.71
2022-09-22T14:36:56.231Z,20.71
2022-09-22T14:39:31.802Z,20.40
2022-09-22T14:42:08.928Z,21.58
2022-09-22T14:44:44.491Z,20.67
2022-09-22T14:47:27.383Z,21.37
2022-09-22T14:50:11.158Z,20.58
2022-09-22T14:52:41.505Z,20.72
2022-09-22T14:55:15.700Z,22.18
2022-09-22T14:57:48.700Z,23.76
2022-09-22T15:00:34.928Z,25.15
2022-09-22T15:03:06.887Z,23.75
2022-09-22T15:05:34.923Z,23.96
2022-09-22T15:08:03.331Z,23.62
2022-09-22T15:10:34.101Z,25.32
2022-09-22T15:13:28.081Z,26.80
2022-09-22T15:15:55.810Z,25.87
2022-09-22T15:18:27.226Z,25.31
2022-09-22T15:20:59.808Z,24.94
2022-09-22T15:23:31.722Z,23.61
2022-09-22T15:26:09.448Z,24.06
2022-09-22T15:28:39.112Z,22.31
2022-09-22T15:31:07.645Z,21.20
2022-09-22T15:33:35.349Z,21.10
2022-09-22T15:36:12.798Z,20.33
2022-09-22T15:38:41.286Z,19.99
2022-09-22T15:41:16.914Z,19.84
2022-09-22T15:43:49.110Z,20.40
2022-09-22T15:46:33.624Z,19.87
2022-09-22T15:49:10.915Z,20.32
2022-09-22T15:51:38.821Z,21.03
2022-09-22T15:54:14.060Z,21.43
2022-09-22T15:56:44.273Z,21.67
2022-09-22T15:59:18.315Z,21.84
2022-09-22T16:01:46.276Z,22.71
2022-09-22T16:04:14.053Z,22.67
2022-09-22T16:06:44.765Z,22.43
2022-09-22T16:09:19.247Z,21.82
2022-09-22T16:11:48.210Z,21.90
2022-09-22T16:14:18.365Z,21.56
2022-09-22T16:16:46.028Z,21.92
2022-09-22T16:19:14.965Z,21.71
2022-09-22T16:21:53.189Z,21.34
2022-09-22T16:24:22.633Z,21.21
2022-09-22T16:26:51.305Z,20.89
2022-09-22T16:29:20.457Z,20.53
2022-09-22T16:31:49.927Z,19.66
2022-09-22T16:34:19.256Z,19.57
2022-09-22T16:36:46.964Z,19.44
2022-09-22T16:39:14.673Z,19.01
2022-09-22T16:41:46.341Z,18.97
2022-09-22T16:44:14.241Z,18.68
2022-09-22T16:46:43.323Z,18.46
2022-09-22T16:49:12.906Z,18.35
2022-09-22T16:51:42.284Z,18.54
2022-09-22T16:54:12.286Z,18.17
2022-09-22T16:56:41.173Z,17.84
2022-09-22T16:59:09.039Z,18.11
2022-09-22T17:01:38.546Z,17.91
2022-09-22T17:04:08.768Z,17.61
2022-09-22T17:06:38.489Z,17.57
2022-09-22T17:09:07.633Z,17.29
2022-09-22T17:11:39.164Z,17.24
2022-09-22T17:14:12.191Z,17.34
2022-09-22T17:16:42.384Z,17.12
2022-09-22T17:19:16.070Z,16.54
2022-09-22T17:21:45.755Z,16.70
2022-09-22T17:24:14.872Z,16.79
2022-09-22T17:26:46.842Z,16.71
2022-09-22T17:29:16.504Z,16.49
2022-09-22T17:31:47.276Z,16.69
2022-09-22T17:34:17.147Z,16.76
2022-09-22T17:36:45.550Z,16.62
2022-09-22T17:39:13.473Z,16.50
2022-09-22T17:41:45.647Z,16.52
2022-09-22T17:44:14.752Z,16.47
2022-09-22T17:47:02.667Z,16.25
2022-09-22T17:49:48.978Z,16.26
2022-09-22T17:52:34.883Z,16.07
2022-09-22T17:55:11.716Z,16.59
2022-09-22T17:57:40.985Z,16.13
2022-09-22T18:00:11.226Z,16.10
2022-09-22T18:02:39.153Z,15.82
2022-09-22T18:05:11.140Z,15.90
2022-09-22T18:07:40.162Z,15.85
2022-09-22T18:10:09.360Z,15.44
2022-09-22T18:12:37.609Z,15.75
2022-09-22T18:15:06.437Z,15.47
2022-09-22T18:17:41.557Z,15.85
2022-09-22T18:20:12.977Z,15.51
2022-09-22T18:22:41.351Z,15.65
2022-09-22T18:25:10.836Z,15.30
2022-09-22T18:27:39.983Z,15.32
2022-09-22T18:30:08.713Z,15.30
2022-09-22T18:32:36.399Z,15.38
2022-09-22T18:35:05.777Z,15.37
2022-09-22T18:37:34.808Z,15.42
2022-09-22T18:40:03.481Z,15.35
2022-09-22T18:42:31.206Z,15.36
2022-09-22T18:44:58.996Z,15.14
2022-09-22T18:47:26.691Z,15.15
2022-09-22T18:49:54.736Z,15.08
2022-09-22T18:52:23.837Z,15.00
2022-09-22T18:54:56.420Z,14.83
2022-09-22T18:57:25.597Z,15.02
2022-09-22T18:59:57.499Z,14.99
2022-09-22T19:02:25.341Z,14.48
2022-09-22T19:04:53.118Z,14.73
2022-09-22T19:07:42.572Z,14.62
2022-09-22T19:10:13.855Z,14.73
2022-09-22T19:12:42.442Z,14.44
2022-09-22T19:15:15.381Z,14.63
2022-09-22T19:17:44.763Z,14.61
2022-09-22T19:20:14.809Z,14.63
2022-09-22T19:22:42.945Z,14.40
2022-09-22T19:25:12.771Z,14.48
2022-09-22T19:27:40.787Z,14.19
2022-09-22T19:30:09.568Z,14.19
2022-09-22T19:32:37.593Z,14.14
2022-09-22T19:35:06.248Z,14.29
2022-09-22T19:37:33.955Z,14.16
2022-09-22T19:40:02.169Z,14.43
2022-09-22T19:42:31.487Z,14.27
2022-09-22T19:44:59.205Z,14.32
2022-09-22T19:47:27.060Z,14.09
2022-09-22T19:49:54.990Z,14.08
2022-09-22T19:52:22.779Z,13.92
2022-09-22T19:54:50.461Z,13.82
2022-09-22T19:57:18.323Z,13.99
2022-09-22T19:59:47.394Z,14.19
2022-09-22T20:02:16.243Z,13.87
2022-09-22T20:04:44.061Z,14.04
2022-09-22T20:07:11.741Z,13.70
2022-09-22T20:09:39.536Z,13.58
2022-09-22T20:12:07.936Z,13.69
2022-09-22T20:14:35.712Z,13.72
2022-09-22T20:17:07.352Z,13.69
2022-09-22T20:19:38.288Z,13.76
2022-09-22T20:22:18.726Z,13.82
2022-09-22T20:24:54.123Z,13.46
2022-09-22T20:27:27.037Z,13.29
2022-09-22T20:29:57.523Z,13.27
2022-09-22T20:32:28.401Z,13.20
2022-09-22T20:34:56.850Z,13.33
2022-09-22T20:37:25.215Z,13.57
2022-09-22T20:39:53.037Z,13.47
2022-09-22T20:42:20.870Z,13.35
2022-09-22T20:44:49.206Z,13.49
2022-09-22T20:47:18.939Z,13.64
2022-09-22T20:49:51.567Z,13.38
2022-09-22T20:52:21.111Z,12.93
2022-09-22T20:54:49.085Z,13.11
2022-09-22T20:57:17.397Z,13.14
2022-09-22T20:59:45.705Z,12.98
2022-09-22T21:02:14.908Z,13.12
2022-09-22T21:04:42.967Z,13.11
2022-09-22T21:07:12.335Z,12.82
2022-09-22T21:09:57.692Z,12.84
2022-09-22T21:12:30.749Z,12.96
2022-09-22T21:14:59.266Z,13.05
2022-09-22T21:17:27.723Z,12.95
2022-09-22T21:19:56.172Z,12.76
2022-09-22T21:22:27.313Z,12.76
2022-09-22T21:24:55.229Z,12.74
2022-09-22T21:27:22.924Z,12.84
2022-09-22T21:29:50.624Z,12.65
2022-09-22T21:32:19.895Z,12.63
2022-09-22T21:34:47.577Z,12.57
2022-09-22T21:37:15.533Z,12.61
2022-09-22T21:39:44.547Z,12.54
2022-09-22T21:42:12.245Z,12.69
2022-09-22T21:44:39.944Z,12.73
2022-09-22T21:47:07.726Z,12.76
2022-09-22T21:49:35.415Z,12.50
2022-09-22T21:52:03.252Z,12.78
2022-09-22T21:54:31.602Z,12.48
2022-09-22T21:57:00.625Z,12.44
2022-09-22T21:59:28.460Z,12.32
2022-09-22T22:01:56.222Z,12.50
2022-09-22T22:04:23.969Z,12.63
2022-09-22T22:06:52.083Z,12.16
2022-09-22T22:09:21.186Z,12.18
2022-09-22T22:11:50.861Z,11.78
2022-09-22T22:14:20.971Z,11.88
2022-09-22T22:16:50.932Z,11.97
2022-09-22T22:19:20.283Z,11.93
2022-09-22T22:21:50.362Z,11.88
2022-09-22T22:24:33.819Z,11.98
2022-09-22T22:27:05.964Z,11.75
2022-09-22T22:29:36.269Z,11.70
2022-09-22T22:32:05.449Z,11.67
2022-09-22T22:34:33.341Z,11.88
2022-09-22T22:37:01.143Z,11.55
2022-09-22T22:39:29.884Z,11.58
2022-09-22T22:41:57.634Z,11.65
2022-09-22T22:44:25.326Z,11.75
2022-09-22T22:46:54.423Z,11.63
2022-09-22T22:49:22.165Z,11.90
2022-09-22T22:51:52.248Z,11.82
2022-09-22T22:54:19.975Z,11.47
2022-09-22T22:56:50.967Z,11.47
2022-09-22T22:59:19.247Z,11.69
2022-09-22T23:02:30.315Z,11.45
2022-09-22T23:05:01.029Z,11.35
2022-09-22T23:07:28.896Z,11.35
2022-09-22T23:10:06.265Z,11.26
2022-09-22T23:12:35.070Z,11.35
2022-09-22T23:15:03.013Z,11.60
2022-09-22T23:17:31.941Z,11.49
2022-09-22T23:20:00.977Z,11.57
2022-09-22T23:22:28.733Z,11.67
2022-09-22T23:24:56.399Z,11.49
2022-09-22T23:27:25.010Z,11.46
2022-09-22T23:29:53.006Z,11.48
2022-09-22T23:32:20.695Z,11.45
2022-09-22T23:34:48.372Z,11.58
2022-09-22T23:37:17.541Z,11.52
2022-09-22T23:39:45.214Z,11.45
2022-09-22T23:42:12.941Z,11.42
2022-09-22T23:44:40.598Z,11.15
2022-09-22T23:47:08.359Z,11.30
2022-09-22T23:49:36.048Z,11.31
2022-09-22T23:52:03.959Z,11.38
2022-09-22T23:54:33.647Z,11.26
2022-09-22T23:57:01.417Z,11.39
2022-09-22T23:59:29.175Z,11.46
